Time;durP1;ratioP1;P1;durP2;ratioP2;P2;SDS_P1;SDS_P2;PMS_P1;PMS_P2;Temp;Humidity;BMP_temperature;BMP_pressure;BME280_temperature;BME280_humidity;BME280_pressure;Samples;Min_cycle;Max_cycle;Signal;HPM_P1;HPM_P2
2021/10/20 00:00:27;;;;;;;8.25;7.70;;;;;;;12.28;94.10;100108.81;10405234;28;20469;-72
2021/10/20 00:05:29;;;;;;;8.93;8.13;;;;;;;12.14;93.99;100108.47;10423042;28;20111;-72
2021/10/20 00:10:31;;;;;;;8.68;8.07;;;;;;;11.88;95.36;100098.88;10423217;28;20045;-72
2021/10/20 00:15:32;;;;;;;8.73;8.13;;;;;;;12.27;94.98;100086.03;10405092;28;20041;-72
2021/10/20 00:20:34;;;;;;;9.52;8.85;;;;;;;12.08;94.93;100086.69;10405360;28;20041;-72
2021/10/20 00:25:36;;;;;;;8.45;7.88;;;;;;;11.67;95.49;100082.91;10422271;28;20045;-73
2021/10/20 00:30:38;;;;;;;8.95;8.40;;;;;;;11.89;95.70;100064.59;10421418;28;20065;-72
2021/10/20 00:35:39;;;;;;;9.73;9.10;;;;;;;11.64;95.14;100051.41;10421509;28;20072;-71
2021/10/20 00:40:41;;;;;;;8.95;8.25;;;;;;;11.58;95.43;100059.53;10423849;28;20045;-71
2021/10/20 00:45:42;;;;;;;8.57;7.90;;;;;;;11.28;95.63;100049.16;10405269;28;20455;-72
2021/10/20 00:50:44;;;;;;;9.13;8.50;;;;;;;11.21;96.55;100038.91;10422561;28;20050;-71
2021/10/20 00:55:46;;;;;;;8.20;7.53;;;;;;;11.03;95.91;100030.72;10420639;28;20576;-72
2021/10/20 01:00:48;;;;;;;8.18;7.63;;;;;;;10.93;95.96;100020.53;10420937;28;20468;-72
2021/10/20 01:05:50;;;;;;;10.00;9.02;;;;;;;10.74;96.31;100022.94;10420371;28;20491;-72
2021/10/20 01:10:51;;;;;;;10.07;9.38;;;;;;;10.72;97.90;100022.13;10419697;28;20099;-72
2021/10/20 01:15:54;;;;;;;8.57;7.97;;;;;;;11.11;93.93;100014.66;10401713;28;20037;-72
2021/10/20 01:20:58;;;;;;;8.85;8.25;;;;;;;11.08;92.85;100010.38;10419831;28;20080;-73
2021/10/20 01:26:00;;;;;;;8.32;7.72;;;;;;;11.04;93.92;99998.25;10421237;28;20083;-72
2021/10/20 01:31:01;;;;;;;8.13;7.60;;;;;;;10.81;94.31;99983.25;10419597;28;20045;-72
2021/10/20 01:36:03;;;;;;;7.90;7.30;;;;;;;10.56;94.93;99979.69;10421391;28;20483;-71
2021/10/20 01:41:05;;;;;;;6.93;6.53;;;;;;;10.40;95.50;99983.72;10421930;28;20048;-72
2021/10/20 01:46:08;;;;;;;9.02;8.32;;;;;;;10.28;96.82;99969.22;10420544;28;20041;-72
2021/10/20 01:51:10;;;;;;;8.75;8.15;;;;;;;10.31;97.17;99964.75;10418231;28;20049;-72
2021/10/20 01:56:12;;;;;;;9.50;8.80;;;;;;;10.73;95.67;99958.13;10400215;28;20050;-72
2021/10/20 02:01:14;;;;;;;9.63;8.93;;;;;;;10.76;96.03;99961.50;10418915;28;20057;-72
2021/10/20 02:06:19;;;;;;;9.73;8.93;;;;;;;10.70;97.15;99947.69;10420525;28;20042;-71
2021/10/20 02:11:22;;;;;;;10.18;9.48;;;;;;;10.67;97.41;99946.06;10418073;28;20049;-71
2021/10/20 02:16:23;;;;;;;12.93;10.50;;;;;;;10.69;98.10;99935.47;10418994;28;20046;-72
2021/10/20 02:21:25;;;;;;;9.77;9.10;;;;;;;10.63;97.72;99938.31;10399419;28;20521;-72
2021/10/20 02:26:26;;;;;;;10.73;10.02;;;;;;;10.66;98.97;99930.31;10416908;28;20049;-72
2021/10/20 02:31:28;;;;;;;9.70;9.02;;;;;;;10.70;99.56;99930.16;10403367;28;20080;-71
2021/10/20 02:36:29;;;;;;;9.55;8.85;;;;;;;10.88;98.57;99918.16;10420393;28;20048;-71
2021/10/20 02:41:31;;;;;;;10.02;9.30;;;;;;;10.92;98.08;99913.66;10419593;28;20053;-71
2021/10/20 02:46:33;;;;;;;9.05;8.38;;;;;;;10.84;98.04;99906.88;10419948;28;20064;-71
2021/10/20 02:51:35;;;;;;;9.30;8.68;;;;;;;10.83;98.61;99909.56;10403566;28;20081;-70
2021/10/20 02:56:37;;;;;;;9.70;8.75;;;;;;;10.77;98.86;99900.13;10401585;28;20041;-71
2021/10/20 03:01:38;;;;;;;8.77;8.18;;;;;;;10.78;98.91;99898.34;10420321;28;20057;-72
2021/10/20 03:06:40;;;;;;;9.57;8.88;;;;;;;10.86;98.30;99898.94;10419714;28;20099;-71
2021/10/20 03:11:41;;;;;;;9.30;8.60;;;;;;;11.02;98.95;99873.84;10420341;28;20049;-71
2021/10/20 03:16:43;;;;;;;8.20;7.53;;;;;;;11.27;95.95;99872.91;10419963;28;20045;-71
2021/10/20 03:21:45;;;;;;;8.45;7.85;;;;;;;11.15;95.97;99866.31;10423023;28;20103;-72
2021/10/20 03:26:46;;;;;;;13.43;8.10;;;;;;;10.88;96.63;99862.06;10425904;28;20041;-72
2021/10/20 03:31:48;;;;;;;8.02;7.47;;;;;;;10.86;96.74;99855.09;10408953;28;20118;-71
2021/10/20 03:36:50;;;;;;;9.65;8.90;;;;;;;10.79;97.00;99856.22;10426490;28;20080;-71
2021/10/20 03:41:52;;;;;;;8.68;8.10;;;;;;;10.82;96.05;99845.59;10424698;28;20049;-71
2021/10/20 03:46:53;;;;;;;8.57;7.97;;;;;;;10.66;96.62;99857.56;10426511;28;20060;-71
2021/10/20 03:51:55;;;;;;;8.48;7.85;;;;;;;10.64;96.20;99848.88;10424220;22;20102;-72
2021/10/20 03:56:56;;;;;;;7.65;7.05;;;;;;;10.68;95.45;99849.66;10463349;28;20044;-71
2021/10/20 04:01:58;;;;;;;8.43;7.72;;;;;;;10.56;95.93;99843.03;10478564;28;20045;-71
2021/10/20 04:07:00;;;;;;;9.10;8.40;;;;;;;10.49;95.67;99837.16;10462607;28;20049;-73
2021/10/20 04:12:02;;;;;;;8.30;7.70;;;;;;;10.54;96.13;99832.59;10463806;28;20080;-71
2021/10/20 04:17:04;;;;;;;9.27;8.57;;;;;;;10.30;96.71;99831.63;10462468;28;20080;-71
2021/10/20 04:22:05;;;;;;;8.38;7.68;;;;;;;10.32;98.16;99828.97;10462561;28;20490;-71
2021/10/20 04:27:07;;;;;;;8.95;8.25;;;;;;;10.48;96.42;99822.25;10460732;28;20075;-71
2021/10/20 04:32:09;;;;;;;8.30;7.78;;;;;;;10.65;95.74;99813.78;10461357;28;20045;-73
2021/10/20 04:37:10;;;;;;;10.18;9.38;;;;;;;10.68;96.05;99811.06;10461787;28;20119;-72
2021/10/20 04:42:12;;;;;;;9.35;8.55;;;;;;;10.36;96.96;99799.06;10459383;28;20053;-71
2021/10/20 04:47:14;;;;;;;9.82;8.93;;;;;;;10.63;96.54;99794.59;10460869;28;20465;-72
2021/10/20 04:52:16;;;;;;;9.43;8.82;;;;;;;10.87;94.82;99784.97;10460633;28;20044;-72
2021/10/20 04:57:19;;;;;;;9.07;8.48;;;;;;;10.91;94.53;99796.22;10461004;28;20487;-74
2021/10/20 05:02:20;;;;;;;9.77;9.10;;;;;;;10.77;94.75;99786.22;10460901;28;20394;-72
2021/10/20 05:07:22;;;;;;;9.18;8.57;;;;;;;10.91;94.76;99783.94;10458820;28;20049;-71
2021/10/20 05:12:24;;;;;;;8.63;8.02;;;;;;;11.00;94.37;99780.09;10460516;28;20053;-72
2021/10/20 05:17:25;;;;;;;7.47;6.97;;;;;;;10.73;94.91;99774.09;10458871;28;20049;-72
2021/10/20 05:22:27;;;;;;;8.13;7.63;;;;;;;10.69;95.88;99768.09;10458416;28;20052;-72
2021/10/20 05:27:29;;;;;;;7.60;7.10;;;;;;;10.87;95.01;99769.19;10459378;28;20128;-72
2021/10/20 05:32:30;;;;;;;8.90;8.20;;;;;;;11.11;93.27;99752.47;10458594;28;20048;-72
2021/10/20 05:37:32;;;;;;;7.25;6.75;;;;;;;10.97;93.41;99762.66;10457596;28;20049;-72
2021/10/20 05:42:33;;;;;;;7.40;6.80;;;;;;;11.13;92.37;99764.72;10458413;28;20041;-72
2021/10/20 05:47:35;;;;;;;7.57;6.82;;;;;;;10.99;93.15;99763.47;10458387;28;20096;-72
2021/10/20 05:52:36;;;;;;;7.38;6.63;;;;;;;11.06;92.96;99767.56;10458301;28;20478;-71
2021/10/20 05:57:39;;;;;;;6.80;6.30;;;;;;;11.02;92.53;99760.72;10458633;28;20049;-71
2021/10/20 06:02:41;;;;;;;9.20;7.53;;;;;;;10.97;92.85;99756.53;10457973;28;20041;-72
2021/10/20 06:07:45;;;;;;;6.90;6.30;;;;;;;10.99;92.97;99754.72;10456442;28;20045;-72
2021/10/20 06:12:46;;;;;;;6.80;6.13;;;;;;;10.99;92.73;99762.63;10457313;28;20433;-72
2021/10/20 06:17:48;;;;;;;7.13;6.53;;;;;;;11.10;92.30;99760.41;10457267;28;20141;-71
2021/10/20 06:22:50;;;;;;;7.80;7.03;;;;;;;11.25;90.68;99759.00;10456413;28;20402;-72
2021/10/20 06:27:52;;;;;;;6.80;6.30;;;;;;;11.27;91.01;99752.72;10456836;28;20048;-72
2021/10/20 06:32:53;;;;;;;5.95;5.43;;;;;;;11.35;90.47;99753.28;10456780;28;20045;-71
2021/10/20 06:37:55;;;;;;;6.65;5.75;;;;;;;11.73;88.52;99737.75;10456678;28;20060;-72
2021/10/20 06:42:56;;;;;;;6.03;5.53;;;;;;;11.86;87.27;99738.97;10455407;28;20130;-71
2021/10/20 06:47:58;;;;;;;5.93;5.40;;;;;;;11.89;87.13;99731.84;10455289;28;20075;-71
2021/10/20 06:53:00;;;;;;;6.25;5.63;;;;;;;11.80;87.88;99730.44;10455242;28;20044;-71
2021/10/20 06:58:01;;;;;;;5.60;5.15;;;;;;;11.76;88.45;99719.16;10463225;28;20533;-72
2021/10/20 07:03:03;;;;;;;7.45;5.07;;;;;;;12.30;84.51;99722.16;10464929;28;20049;-72
2021/10/20 07:08:05;;;;;;;5.22;4.82;;;;;;;12.20;85.35;99719.09;10464304;28;20044;-73
2021/10/20 07:13:07;;;;;;;5.05;4.43;;;;;;;12.26;85.42;99720.59;10462298;28;20102;-72
2021/10/20 07:18:08;;;;;;;5.32;4.28;;;;;;;12.34;85.27;99721.13;10463910;28;20047;-72
2021/10/20 07:23:10;;;;;;;6.57;4.30;;;;;;;12.45;83.93;99723.28;10464249;28;20049;-73
2021/10/20 07:28:13;;;;;;;7.25;4.47;;;;;;;12.63;83.40;99699.59;10462715;28;20045;-73
2021/10/20 07:33:14;;;;;;;6.75;4.90;;;;;;;12.73;82.68;99697.38;10463085;28;20064;-72
2021/10/20 07:38:16;;;;;;;5.38;4.57;;;;;;;13.17;80.21;99690.97;10463001;28;20045;-73
2021/10/20 07:43:18;;;;;;;5.68;4.25;;;;;;;13.16;80.26;99689.25;10461605;28;20049;-74
2021/10/20 07:48:19;;;;;;;4.38;3.97;;;;;;;13.57;78.35;99680.19;10462720;28;20056;-72
2021/10/20 07:53:21;;;;;;;4.55;3.28;;;;;;;13.70;78.02;99693.66;10463024;28;20049;-72
2021/10/20 07:58:22;;;;;;;5.53;3.08;;;;;;;14.03;75.30;99690.22;10462601;28;20041;-72
2021/10/20 08:03:24;;;;;;;7.63;3.13;;;;;;;14.01;75.68;99686.81;10461335;28;20056;-73
2021/10/20 08:08:26;;;;;;;5.15;3.72;;;;;;;14.23;74.76;99681.25;10461712;28;20045;-71
2021/10/20 08:13:28;;;;;;;3.58;2.70;;;;;;;14.42;73.05;99689.94;10460676;28;20048;-73
2021/10/20 08:18:30;;;;;;;4.63;2.83;;;;;;;14.47;73.05;99669.38;10460567;28;20048;-73
2021/10/20 08:23:32;;;;;;;3.60;3.30;;;;;;;14.68;72.06;99661.25;10462673;28;20430;-72
2021/10/20 08:28:33;;;;;;;3.63;2.97;;;;;;;14.77;71.73;99663.41;10461387;28;20445;-72
2021/10/20 08:33:35;;;;;;;3.25;2.95;;;;;;;15.20;69.70;99647.78;10459796;28;20049;-72
2021/10/20 08:38:36;;;;;;;2.67;2.28;;;;;;;15.31;70.01;99648.00;10459535;28;20095;-73
2021/10/20 08:43:38;;;;;;;2.80;2.28;;;;;;;15.56;69.76;99637.69;10459331;28;20072;-74
2021/10/20 08:48:41;;;;;;;2.50;2.00;;;;;;;15.98;66.39;99630.84;10460349;28;20045;-73
2021/10/20 08:53:42;;;;;;;2.83;2.28;;;;;;;16.30;63.83;99630.66;10460515;28;20087;-73
2021/10/20 08:58:47;;;;;;;3.25;2.53;;;;;;;16.52;62.75;99623.06;10458719;28;20084;-73
2021/10/20 09:03:48;;;;;;;4.55;3.30;;;;;;;16.83;61.66;99611.41;10458114;28;20395;-73
2021/10/20 09:08:50;;;;;;;3.60;2.58;;;;;;;16.83;62.28;99619.34;10457858;28;20048;-72
2021/10/20 09:13:58;;;;;;;4.80;2.55;;;;;;;17.03;59.50;99606.59;10458097;28;20572;-73
2021/10/20 09:19:20;;;;;;;4.80;2.30;;;;;;;16.91;61.59;99597.63;10459108;28;20154;-73
2021/10/20 09:24:23;;;;;;;3.75;2.40;;;;;;;16.89;61.10;99589.75;10459724;28;20068;-74
2021/10/20 09:29:28;;;;;;;3.00;2.50;;;;;;;17.09;62.71;99582.31;10458905;28;20409;-72
2021/10/20 09:34:36;;;;;;;3.30;2.70;;;;;;;17.32;61.18;99576.31;10458382;28;20124;-73
2021/10/20 09:39:39;;;;;;;3.15;2.22;;;;;;;17.78;58.50;99570.56;10457240;28;20041;-73
2021/10/20 09:44:52;;;;;;;3.88;2.63;;;;;;;17.90;58.19;99563.56;10458580;28;20418;-73
2021/10/20 09:49:56;;;;;;;2.78;2.40;;;;;;;17.90;58.62;99564.41;10456757;28;20052;-73
2021/10/20 09:54:57;;;;;;;2.88;2.20;;;;;;;18.22;56.99;99547.13;10456284;28;20094;-74
2021/10/20 10:00:00;;;;;;;2.80;2.28;;;;;;;18.38;57.09;99542.44;10457131;28;20049;-75
2021/10/20 10:05:12;;;;;;;2.92;1.90;;;;;;;18.76;55.62;99537.00;10456837;28;20080;-75
2021/10/20 10:10:13;;;;;;;3.63;2.13;;;;;;;19.02;55.16;99535.06;10457529;28;20041;-76
2021/10/20 10:15:17;;;;;;;2.55;2.03;;;;;;;19.15;53.75;99527.00;10456692;28;20056;-75
2021/10/20 10:20:44;;;;;;;2.80;2.40;;;;;;;19.24;53.19;99517.47;10455474;28;20060;-76
2021/10/20 10:25:57;;;;;;;3.80;2.22;;;;;;;19.10;54.27;99503.38;10456196;28;20045;-75
2021/10/20 10:31:10;;;;;;;2.65;2.08;;;;;;;19.05;54.57;99496.72;10454806;28;20037;-75
2021/10/20 10:36:19;;;;;;;2.63;1.90;;;;;;;19.21;53.26;99491.91;10454732;28;20053;-75
2021/10/20 10:41:25;;;;;;;3.97;2.17;;;;;;;18.85;54.76;99476.88;10456460;28;20044;-75
2021/10/20 10:46:47;;;;;;;5.80;1.90;;;;;;;19.37;53.81;99475.59;10438375;28;20572;-76
2021/10/20 10:52:21;;;;;;;3.95;2.25;;;;;;;19.83;52.41;99459.56;10444498;28;20503;-74
2021/10/20 10:57:34;;;;;;;3.22;1.70;;;;;;;20.77;49.18;99444.00;10454835;28;20041;-75
2021/10/20 11:02:45;;;;;;;2.90;2.50;;;;;;;20.85;50.01;99422.81;10455131;28;20048;-75
2021/10/20 11:07:49;;;;;;;2.70;1.10;;;;;;;21.71;41.55;99402.94;10454699;28;20546;-75
2021/10/20 11:12:53;;;;;;;1.00;1.00;;;;;;;22.15;37.20;99403.53;10455620;28;20059;-74
2021/10/20 11:17:56;;;;;;;4.10;1.00;;;;;;;22.08;35.66;99386.28;10456302;28;20066;-74
2021/10/20 11:23:07;;;;;;;1.27;1.10;;;;;;;22.10;35.84;99373.63;10456806;28;20513;-75
2021/10/20 11:28:09;;;;;;;1.67;1.10;;;;;;;22.64;34.33;99367.75;10456206;28;20040;-75
2021/10/20 11:33:16;;;;;;;1.10;0.93;;;;;;;22.84;35.28;99355.22;10456490;28;20052;-73
2021/10/20 11:38:18;;;;;;;2.63;0.95;;;;;;;22.47;35.05;99351.56;10456411;28;20379;-74
2021/10/20 11:43:27;;;;;;;1.02;0.95;;;;;;;22.53;35.11;99361.69;10460767;28;20041;-75
2021/10/20 11:48:30;;;;;;;1.70;1.08;;;;;;;22.53;35.11;99353.66;10462560;28;20069;-74
2021/10/20 11:53:35;;;;;;;5.67;1.37;;;;;;;22.49;35.06;99337.06;10463409;28;20049;-75
2021/10/20 11:58:38;;;;;;;2.38;0.98;;;;;;;22.32;34.94;99327.06;10462892;28;20105;-75
2021/10/20 12:03:42;;;;;;;1.83;1.10;;;;;;;22.13;36.46;99309.13;10462294;28;20528;-75
2021/10/20 12:08:46;;;;;;;1.17;0.90;;;;;;;22.04;36.75;99305.41;10462574;28;20379;-75
2021/10/20 12:13:48;;;;;;;0.93;0.93;;;;;;;22.21;36.46;99287.03;10460618;28;20048;-75
2021/10/20 12:18:51;;;;;;;1.38;1.08;;;;;;;22.12;36.44;99281.53;10461999;28;20037;-75
2021/10/20 12:24:00;;;;;;;1.90;1.10;;;;;;;22.07;38.48;99259.66;10461618;28;20516;-74
2021/10/20 12:29:08;;;;;;;3.05;1.10;;;;;;;21.70;41.03;99250.63;10461873;28;20498;-74
2021/10/20 12:34:09;;;;;;;2.33;1.48;;;;;;;21.85;39.63;99246.56;10460303;28;20052;-75
2021/10/20 12:39:11;;;;;;;2.97;1.90;;;;;;;21.60;40.05;99232.75;10459183;28;20048;-74
2021/10/20 12:44:13;;;;;;;1.58;1.20;;;;;;;21.67;39.41;99233.84;10460233;28;20529;-74
2021/10/20 12:49:14;;;;;;;1.52;1.30;;;;;;;21.77;39.69;99236.53;10460831;28;20036;-75
2021/10/20 12:54:16;;;;;;;2.08;1.17;;;;;;;21.82;39.90;99228.94;10459472;28;20098;-75
2021/10/20 12:59:20;;;;;;;1.83;1.10;;;;;;;21.62;40.53;99217.38;10459735;28;20041;-75
2021/10/20 13:04:21;;;;;;;2.78;1.30;;;;;;;21.33;40.00;99227.16;10458759;28;20048;-75
2021/10/20 13:09:24;;;;;;;2.40;1.45;;;;;;;21.34;40.66;99212.84;10458793;28;20049;-75
2021/10/20 13:14:29;;;;;;;4.63;1.60;;;;;;;20.97;41.33;99209.88;10458959;28;20044;-74
2021/10/20 13:19:30;;;;;;;2.85;1.38;;;;;;;20.71;41.26;99204.97;10460653;28;20462;-75
2021/10/20 13:24:32;;;;;;;3.85;1.63;;;;;;;20.79;41.69;99204.31;10459478;28;20049;-76
2021/10/20 13:29:33;;;;;;;3.63;1.50;;;;;;;20.70;42.38;99194.44;10459589;28;20037;-76
2021/10/20 13:34:37;;;;;;;1.90;1.40;;;;;;;20.60;42.07;99186.38;10459196;28;20074;-76
2021/10/20 13:39:38;;;;;;;3.55;1.38;;;;;;;20.41;43.07;99192.44;10458779;28;20044;-76
2021/10/20 13:44:41;;;;;;;7.07;1.48;;;;;;;20.18;43.66;99226.41;10458665;28;20116;-76
2021/10/20 13:49:42;;;;;;;3.22;1.52;;;;;;;20.16;44.57;99229.19;10459695;28;20045;-76
2021/10/20 13:54:44;;;;;;;3.13;1.70;;;;;;;20.38;43.72;99214.88;10457231;28;20048;-76
2021/10/20 13:59:46;;;;;;;4.32;1.55;;;;;;;20.21;44.06;99210.13;10458775;28;20120;-76
2021/10/20 14:04:51;;;;;;;3.83;2.00;;;;;;;20.19;44.20;99204.09;10457300;28;20146;-75
2021/10/20 14:09:52;;;;;;;3.28;1.70;;;;;;;19.90;45.94;99198.53;10458427;28;20045;-75
2021/10/20 14:14:55;;;;;;;2.17;1.63;;;;;;;19.75;46.34;99190.00;10458933;28;20422;-76
2021/10/20 14:19:57;;;;;;;2.33;1.52;;;;;;;19.84;46.29;99183.06;10457810;28;20103;-76
2021/10/20 14:24:59;;;;;;;3.97;2.03;;;;;;;19.84;46.38;99172.38;10457299;28;20102;-76
2021/10/20 14:30:00;;;;;;;2.35;1.60;;;;;;;19.70;46.21;99170.00;10457183;28;20483;-76
2021/10/20 14:35:06;;;;;;;3.05;1.40;;;;;;;19.70;46.05;99156.66;10456683;28;20123;-76
2021/10/20 14:40:10;;;;;;;2.40;1.60;;;;;;;19.77;45.45;99148.03;10457152;28;20051;-75
2021/10/20 14:45:13;;;;;;;2.25;1.48;;;;;;;19.90;43.61;99143.38;10455978;28;20053;-77
2021/10/20 14:50:15;;;;;;;4.50;1.20;;;;;;;20.09;43.76;99134.63;10456965;28;20063;-75
2021/10/20 14:55:16;;;;;;;1.75;1.25;;;;;;;20.21;42.67;99118.56;10456905;28;20048;-75
2021/10/20 15:00:18;;;;;;;2.03;1.30;;;;;;;20.23;42.56;99103.25;10456245;28;20059;-76
2021/10/20 15:05:21;;;;;;;3.42;1.40;;;;;;;20.50;41.67;99097.41;10454707;28;20049;-75
2021/10/20 15:10:24;;;;;;;3.20;1.30;;;;;;;20.45;41.55;99097.75;10455668;28;20433;-75
2021/10/20 15:15:25;;;;;;;4.55;1.45;;;;;;;20.54;41.14;99104.13;10457039;28;20053;-75
2021/10/20 15:20:50;;;;;;;4.47;3.78;;;;;;;20.50;40.96;99114.25;10463022;28;20043;-75
2021/10/20 15:25:52;;;;;;;1.90;1.05;;;;;;;20.68;40.15;99109.13;10464493;28;20123;-75
2021/10/20 15:30:54;;;;;;;1.50;1.40;;;;;;;20.55;40.13;99111.19;10464900;28;20406;-75
2021/10/20 15:35:55;;;;;;;2.47;1.33;;;;;;;20.66;39.92;99122.59;10446751;28;20048;-75
2021/10/20 15:40:57;;;;;;;1.92;1.20;;;;;;;20.54;40.54;99129.03;10464556;28;20045;-75
2021/10/20 15:45:59;;;;;;;2.70;1.00;;;;;;;20.29;41.18;99132.09;10463592;28;20049;-76
2021/10/20 15:51:01;;;;;;;2.03;1.15;;;;;;;20.30;41.55;99134.63;10463055;28;20375;-75
2021/10/20 15:56:03;;;;;;;5.85;1.45;;;;;;;20.20;42.22;99132.91;10462614;28;20506;-72
2021/10/20 16:01:07;;;;;;;1.33;1.23;;;;;;;20.00;42.86;99122.09;10462514;28;20552;-72
2021/10/20 16:06:10;;;;;;;1.85;1.30;;;;;;;19.86;43.95;99133.09;10461277;28;20048;-73
2021/10/20 16:11:14;;;;;;;1.45;1.35;;;;;;;19.91;44.36;99133.53;10462227;28;20049;-72
2021/10/20 16:16:16;;;;;;;2.78;1.60;;;;;;;19.85;44.65;99124.25;10462388;28;20041;-72
2021/10/20 16:21:19;;;;;;;1.40;1.30;;;;;;;19.55;45.81;99113.44;10462680;28;20091;-72
2021/10/20 16:26:20;;;;;;;1.92;1.50;;;;;;;19.58;46.29;99143.38;10461328;28;20045;-74
2021/10/20 16:31:23;;;;;;;1.35;1.25;;;;;;;19.57;46.77;99139.03;10461939;28;20037;-73
2021/10/20 16:36:24;;;;;;;1.95;1.67;;;;;;;19.52;47.16;99137.69;10463728;28;20041;-74
2021/10/20 16:41:26;;;;;;;3.13;1.50;;;;;;;19.54;47.90;99135.75;10462842;28;20445;-71
2021/10/20 16:46:29;;;;;;;1.50;1.40;;;;;;;19.44;48.75;99124.19;10462172;28;20053;-72
2021/10/20 16:51:31;;;;;;;2.30;1.70;;;;;;;19.28;49.40;99124.59;10462837;28;20041;-72
2021/10/20 16:56:34;;;;;;;1.73;1.63;;;;;;;19.24;49.52;99126.66;10462944;28;20049;-72
2021/10/20 17:01:35;;;;;;;2.17;1.60;;;;;;;19.17;50.21;99128.13;10462915;28;20402;-73
2021/10/20 17:06:37;;;;;;;2.90;1.75;;;;;;;19.20;50.45;99111.03;10460326;28;20048;-73
2021/10/20 17:11:39;;;;;;;6.93;2.17;;;;;;;18.97;51.17;99121.75;10462163;28;20453;-73
2021/10/20 17:16:41;;;;;;;4.82;2.20;;;;;;;18.97;51.46;99110.25;10461353;28;20083;-73
2021/10/20 17:21:44;;;;;;;6.00;2.35;;;;;;;19.03;51.78;99104.41;10460264;28;20053;-73
2021/10/20 17:27:03;;;;;;;2.20;1.90;;;;;;;19.22;51.46;99095.78;10463509;28;20443;-72
2021/10/20 17:32:05;;;;;;;2.47;2.10;;;;;;;19.15;52.00;99088.28;10461169;28;20056;-73
2021/10/20 17:37:08;;;;;;;2.65;2.45;;;;;;;18.95;52.65;99089.09;10460306;28;20109;-74
2021/10/20 17:42:09;;;;;;;3.30;3.10;;;;;;;19.11;52.49;99091.31;10461181;28;20049;-74
2021/10/20 17:47:11;;;;;;;2.67;2.38;;;;;;;19.06;52.78;99075.72;10460828;28;20088;-74
2021/10/20 17:52:12;;;;;;;2.60;2.40;;;;;;;18.98;53.64;99069.34;10459907;28;20135;-74
2021/10/20 17:57:14;;;;;;;2.63;2.42;;;;;;;18.99;53.50;99052.38;10460141;28;20099;-72
2021/10/20 18:02:15;;;;;;;2.85;2.53;;;;;;;19.04;53.71;99042.22;10457422;28;20459;-71
2021/10/20 18:07:17;;;;;;;2.28;2.08;;;;;;;18.87;54.76;99030.28;10456401;28;20179;-72
2021/10/20 18:12:19;;;;;;;4.10;3.17;;;;;;;18.90;54.92;99045.97;10456140;28;20041;-73
2021/10/20 18:17:20;;;;;;;4.03;3.15;;;;;;;18.90;54.50;99041.53;10456563;28;20048;-72
2021/10/20 18:22:23;;;;;;;3.03;2.78;;;;;;;18.83;55.29;99058.13;10458175;28;20077;-72
2021/10/20 18:27:25;;;;;;;2.95;2.72;;;;;;;18.93;54.91;99043.09;10457335;28;20099;-72
2021/10/20 18:32:27;;;;;;;4.13;2.72;;;;;;;18.91;55.02;99047.69;10457244;28;20108;-73
2021/10/20 18:37:30;;;;;;;2.92;2.72;;;;;;;18.88;55.42;99042.63;10456877;28;20414;-72
2021/10/20 18:42:34;;;;;;;3.85;2.53;;;;;;;18.73;55.68;99043.88;10455902;28;20074;-73
2021/10/20 18:47:40;;;;;;;3.22;2.78;;;;;;;18.63;56.39;99038.41;10455061;28;20083;-73
2021/10/20 18:52:47;;;;;;;5.17;2.40;;;;;;;18.77;55.75;99024.88;10461088;28;20049;-72
2021/10/20 18:57:49;;;;;;;3.60;2.80;;;;;;;18.75;55.79;99000.19;10463828;28;20154;-72
2021/10/20 19:02:51;;;;;;;3.08;2.20;;;;;;;18.72;55.99;98995.09;10464551;28;20049;-73
2021/10/20 19:07:53;;;;;;;3.30;2.40;;;;;;;18.84;55.30;98999.41;10463877;28;20048;-73
2021/10/20 19:12:55;;;;;;;2.40;2.20;;;;;;;18.73;55.59;98986.16;10446122;28;20525;-72
2021/10/20 19:17:58;;;;;;;2.95;2.40;;;;;;;18.53;56.17;98979.75;10464272;28;20045;-72
2021/10/20 19:23:00;;;;;;;2.40;2.20;;;;;;;18.50;55.96;98980.00;10462816;28;20041;-72
2021/10/20 19:28:02;;;;;;;2.33;2.10;;;;;;;18.52;56.24;98980.72;10461642;28;20068;-72
2021/10/20 19:33:04;;;;;;;2.42;2.20;;;;;;;18.35;56.44;98981.25;10462918;28;20056;-73
2021/10/20 19:38:07;;;;;;;2.78;1.85;;;;;;;18.09;57.68;98972.69;10463164;28;20046;-73
2021/10/20 19:43:08;;;;;;;2.92;2.13;;;;;;;18.23;56.91;98964.44;10461742;28;20037;-73
2021/10/20 19:48:10;;;;;;;2.50;2.15;;;;;;;18.35;56.63;98967.94;10461436;28;20045;-73
2021/10/20 19:53:12;;;;;;;3.33;2.05;;;;;;;18.16;57.25;98960.59;10462332;28;20574;-73
2021/10/20 19:58:14;;;;;;;2.47;2.28;;;;;;;17.98;58.07;98959.41;10444126;28;20103;-73
2021/10/20 20:03:16;;;;;;;5.88;1.85;;;;;;;17.83;58.59;98951.66;10461749;28;20102;-72
2021/10/20 20:08:17;;;;;;;2.33;2.13;;;;;;;17.88;58.34;98935.34;10460617;28;20052;-73
2021/10/20 20:13:19;;;;;;;4.28;2.30;;;;;;;18.07;57.74;98934.75;10460585;28;20414;-73
2021/10/20 20:18:23;;;;;;;4.13;2.05;;;;;;;17.97;58.09;98937.28;10460908;28;20110;-72
2021/10/20 20:23:24;;;;;;;2.47;2.28;;;;;;;18.08;57.68;98934.63;10460115;28;20055;-72
2021/10/20 20:28:27;;;;;;;3.67;2.10;;;;;;;18.21;57.45;98933.63;10459727;28;20045;-72
2021/10/20 20:33:28;;;;;;;3.17;2.38;;;;;;;18.03;58.11;98917.34;10460918;28;20040;-73
2021/10/20 20:38:31;;;;;;;2.47;2.28;;;;;;;18.18;57.93;98915.25;10460752;28;20438;-72
2021/10/20 20:43:33;;;;;;;2.50;2.28;;;;;;;18.07;58.10;98906.34;10461151;28;20045;-73
2021/10/20 20:48:35;;;;;;;2.33;2.13;;;;;;;18.01;58.42;98880.22;10459216;28;20502;-74
2021/10/20 20:53:37;;;;;;;2.38;1.90;;;;;;;18.09;57.99;98868.97;10460080;28;20079;-72
2021/10/20 20:58:38;;;;;;;3.20;2.13;;;;;;;18.06;58.47;98866.56;10458721;28;20061;-72
2021/10/20 21:03:40;;;;;;;4.80;2.35;;;;;;;18.29;57.71;98856.72;10460031;28;20045;-72
2021/10/20 21:08:41;;;;;;;2.70;2.10;;;;;;;18.21;58.13;98862.66;10460367;28;20084;-71
2021/10/20 21:13:43;;;;;;;2.40;2.00;;;;;;;18.11;59.23;98865.25;10458831;28;20036;-71
2021/10/20 21:18:48;;;;;;;2.10;1.90;;;;;;;18.16;58.80;98848.91;10458161;28;20045;-73
2021/10/20 21:23:50;;;;;;;2.17;1.73;;;;;;;18.23;59.06;98831.44;10459534;28;20490;-72
2021/10/20 21:28:54;;;;;;;2.28;1.67;;;;;;;18.05;59.93;98844.44;10459790;28;20124;-72
2021/10/20 21:33:56;;;;;;;1.40;1.30;;;;;;;18.19;59.74;98845.13;10457737;28;20048;-72
2021/10/20 21:38:57;;;;;;;3.55;2.03;;;;;;;18.29;59.59;98840.75;10459044;28;20048;-72
2021/10/20 21:43:59;;;;;;;2.60;1.77;;;;;;;18.73;58.12;98831.75;10458554;28;20490;-72
2021/10/20 21:49:01;;;;;;;2.05;1.80;;;;;;;18.75;58.24;98810.31;10459084;28;20087;-72
2021/10/20 21:54:02;;;;;;;2.17;1.67;;;;;;;18.67;58.40;98806.44;10474395;22;20493;-75
2021/10/20 21:59:04;;;;;;;2.75;1.80;;;;;;;18.52;59.11;98793.63;10464051;28;20079;-76
2021/10/20 22:04:05;;;;;;;2.70;1.40;;;;;;;18.38;59.58;98792.13;10461528;28;20049;-74
2021/10/20 22:09:07;;;;;;;2.38;2.00;;;;;;;18.08;61.02;98806.97;10462139;28;20051;-74
2021/10/20 22:14:09;;;;;;;1.70;1.30;;;;;;;18.07;59.52;98794.66;10461563;28;20435;-76
2021/10/20 22:19:11;;;;;;;2.42;1.63;;;;;;;18.59;57.39;98805.41;10460855;28;20082;-75
2021/10/20 22:24:15;;;;;;;2.17;1.30;;;;;;;18.65;56.50;98788.94;10464293;28;20063;-75
2021/10/20 22:29:17;;;;;;;1.20;1.10;;;;;;;18.65;55.04;98787.13;10460296;28;20048;-75
2021/10/20 22:34:19;;;;;;;1.50;1.00;;;;;;;18.74;53.55;98774.03;10462348;28;20386;-75
2021/10/20 22:39:20;;;;;;;1.15;0.73;;;;;;;18.68;52.38;98735.44;10459773;28;20048;-74
2021/10/20 22:44:22;;;;;;;0.60;0.60;;;;;;;18.45;53.23;98699.31;10463846;28;20075;-75
2021/10/20 22:49:23;;;;;;;1.85;0.70;;;;;;;18.47;50.60;98679.59;10461373;28;20045;-75
2021/10/20 22:54:25;;;;;;;0.80;0.57;;;;;;;18.32;50.23;98671.06;10460527;28;20103;-75
2021/10/20 22:59:27;;;;;;;3.45;0.60;;;;;;;18.46;48.33;98651.31;10461535;28;20051;-75
2021/10/20 23:04:30;;;;;;;3.50;0.73;;;;;;;18.58;47.61;98620.09;10461881;28;20049;-75
2021/10/20 23:09:31;;;;;;;1.63;0.50;;;;;;;18.42;49.43;98578.03;10461084;28;20060;-76
2021/10/20 23:14:35;;;;;;;2.25;0.60;;;;;;;18.24;51.28;98574.28;10458931;28;20057;-74
2021/10/20 23:19:37;;;;;;;0.80;0.50;;;;;;;18.04;52.37;98531.66;10460472;28;20060;-75
2021/10/20 23:24:38;;;;;;;0.40;0.40;;;;;;;17.95;51.95;98492.56;10460549;28;20068;-76